Praia Grande, Brazil
Current Conditions -  °F | °C
As of 8:00 PM on Friday 28 Nov 2014 (Local Time) from SBST Reporting Station
Broken Clouds Broken Clouds  
Wind Chill: 75°   Ceiling: 2200
Heat Index: 75°   Visibility: 6mi
Dew Point: 68°   Wind: 8mph
Humidity: 78%   Direction: 130°SE
Pressure: 30"   Gusts: NA
Location:  24°S, 46.4°W
Report Text: SBST 282200Z 13007KT 9999 BKN022 24/20 Q1016
Loading
Personal Weather Stations






























Interactive Weather Map New forecast layout! Learn more

10-Day Weather Forecast

Advertisements
Track Severe Weather on mobile